sensor_id;sensor_type;location;lat;lon;timestamp;P1;durP1;ratioP1;P2;durP2;ratioP2
20022;SDS011;10172;42.054;24.546;2023-10-13T00:00:31;1.27;;;1.10;;
20022;SDS011;10172;42.054;24.546;2023-10-13T00:03:01;2.65;;;1.20;;
20022;SDS011;10172;42.054;24.546;2023-10-13T00:05:28;1.88;;;1.40;;
20022;SDS011;10172;42.054;24.546;2023-10-13T00:07:56;2.33;;;1.30;;
20022;SDS011;10172;42.054;24.546;2023-10-13T00:10:25;2.35;;;1.45;;
20022;SDS011;10172;42.054;24.546;2023-10-13T00:12:54;1.85;;;1.17;;
20022;SDS011;10172;42.054;24.546;2023-10-13T00:15:30;1.98;;;1.38;;
20022;SDS011;10172;42.054;24.546;2023-10-13T00:18:03;3.53;;;1.70;;
20022;SDS011;10172;42.054;24.546;2023-10-13T00:20:37;2.53;;;1.40;;
20022;SDS011;10172;42.054;24.546;2023-10-13T00:23:06;4.68;;;1.50;;
20022;SDS011;10172;42.054;24.546;2023-10-13T00:25:32;1.95;;;1.20;;
20022;SDS011;10172;42.054;24.546;2023-10-13T00:28:08;2.40;;;1.45;;
20022;SDS011;10172;42.054;24.546;2023-10-13T00:30:34;1.83;;;1.20;;
20022;SDS011;10172;42.054;24.546;2023-10-13T00:33:00;2.92;;;1.20;;
20022;SDS011;10172;42.054;24.546;2023-10-13T00:35:29;3.25;;;1.70;;
20022;SDS011;10172;42.054;24.546;2023-10-13T00:38:01;2.58;;;1.20;;
20022;SDS011;10172;42.054;24.546;2023-10-13T00:40:42;1.85;;;1.40;;
20022;SDS011;10172;42.054;24.546;2023-10-13T00:43:09;2.88;;;1.48;;
20022;SDS011;10172;42.054;24.546;2023-10-13T00:45:44;8.00;;;1.48;;
20022;SDS011;10172;42.054;24.546;2023-10-13T00:48:38;3.40;;;1.50;;
20022;SDS011;10172;42.054;24.546;2023-10-13T00:51:17;2.33;;;1.40;;
20022;SDS011;10172;42.054;24.546;2023-10-13T00:53:47;4.07;;;1.60;;
20022;SDS011;10172;42.054;24.546;2023-10-13T00:56:14;2.30;;;1.50;;
20022;SDS011;10172;42.054;24.546;2023-10-13T00:58:52;4.10;;;1.42;;
20022;SDS011;10172;42.054;24.546;2023-10-13T01:01:19;1.90;;;1.33;;
20022;SDS011;10172;42.054;24.546;2023-10-13T01:03:54;2.03;;;1.40;;
20022;SDS011;10172;42.054;24.546;2023-10-13T01:06:27;3.47;;;1.20;;
20022;SDS011;10172;42.054;24.546;2023-10-13T01:11:36;2.58;;;1.33;;
20022;SDS011;10172;42.054;24.546;2023-10-13T01:14:02;2.05;;;1.23;;
20022;SDS011;10172;42.054;24.546;2023-10-13T01:16:29;4.68;;;1.40;;
20022;SDS011;10172;42.054;24.546;2023-10-13T01:18:55;2.83;;;1.52;;
20022;SDS011;10172;42.054;24.546;2023-10-13T01:21:24;1.73;;;1.23;;
20022;SDS011;10172;42.054;24.546;2023-10-13T01:23:54;2.08;;;1.10;;
20022;SDS011;10172;42.054;24.546;2023-10-13T01:26:20;1.77;;;1.33;;
20022;SDS011;10172;42.054;24.546;2023-10-13T01:28:56;3.47;;;1.55;;
20022;SDS011;10172;42.054;24.546;2023-10-13T01:31:22;1.80;;;1.10;;
20022;SDS011;10172;42.054;24.546;2023-10-13T01:34:02;2.92;;;1.60;;
20022;SDS011;10172;42.054;24.546;2023-10-13T01:36:27;2.35;;;1.60;;
20022;SDS011;10172;42.054;24.546;2023-10-13T01:38:54;3.20;;;1.50;;
20022;SDS011;10172;42.054;24.546;2023-10-13T01:41:20;2.30;;;1.35;;
20022;SDS011;10172;42.054;24.546;2023-10-13T01:43:47;1.58;;;1.48;;
20022;SDS011;10172;42.054;24.546;2023-10-13T01:46:13;3.38;;;1.45;;
20022;SDS011;10172;42.054;24.546;2023-10-13T01:48:40;1.27;;;1.17;;
20022;SDS011;10172;42.054;24.546;2023-10-13T01:51:08;2.67;;;1.63;;
20022;SDS011;10172;42.054;24.546;2023-10-13T01:53:37;2.55;;;1.33;;
20022;SDS011;10172;42.054;24.546;2023-10-13T01:56:04;2.25;;;1.38;;
20022;SDS011;10172;42.054;24.546;2023-10-13T01:58:37;2.65;;;1.50;;
20022;SDS011;10172;42.054;24.546;2023-10-13T02:01:06;5.05;;;1.48;;
20022;SDS011;10172;42.054;24.546;2023-10-13T02:03:32;3.72;;;1.67;;
20022;SDS011;10172;42.054;24.546;2023-10-13T02:05:58;6.93;;;1.60;;
20022;SDS011;10172;42.054;24.546;2023-10-13T02:08:29;1.88;;;1.33;;
20022;SDS011;10172;42.054;24.546;2023-10-13T02:10:55;3.30;;;1.40;;
20022;SDS011;10172;42.054;24.546;2023-10-13T02:13:22;2.15;;;1.30;;
20022;SDS011;10172;42.054;24.546;2023-10-13T02:15:52;2.88;;;1.85;;
20022;SDS011;10172;42.054;24.546;2023-10-13T02:18:21;4.15;;;2.00;;
20022;SDS011;10172;42.054;24.546;2023-10-13T02:20:54;3.35;;;1.77;;
20022;SDS011;10172;42.054;24.546;2023-10-13T02:23:22;2.63;;;1.65;;
20022;SDS011;10172;42.054;24.546;2023-10-13T02:25:49;2.10;;;1.52;;
20022;SDS011;10172;42.054;24.546;2023-10-13T02:28:17;2.70;;;1.70;;
20022;SDS011;10172;42.054;24.546;2023-10-13T02:30:46;2.00;;;1.40;;
20022;SDS011;10172;42.054;24.546;2023-10-13T02:33:15;1.67;;;1.30;;
20022;SDS011;10172;42.054;24.546;2023-10-13T02:35:54;3.40;;;1.77;;
20022;SDS011;10172;42.054;24.546;2023-10-13T02:38:23;4.90;;;2.05;;
20022;SDS011;10172;42.054;24.546;2023-10-13T02:40:53;2.30;;;1.50;;
20022;SDS011;10172;42.054;24.546;2023-10-13T02:43:20;2.75;;;2.15;;
20022;SDS011;10172;42.054;24.546;2023-10-13T02:45:54;2.90;;;1.77;;
20022;SDS011;10172;42.054;24.546;2023-10-13T02:48:28;3.50;;;1.65;;
20022;SDS011;10172;42.054;24.546;2023-10-13T02:51:07;4.05;;;2.00;;
20022;SDS011;10172;42.054;24.546;2023-10-13T02:53:46;5.22;;;1.73;;
20022;SDS011;10172;42.054;24.546;2023-10-13T02:56:15;3.33;;;1.80;;
20022;SDS011;10172;42.054;24.546;2023-10-13T02:58:52;3.10;;;1.70;;
20022;SDS011;10172;42.054;24.546;2023-10-13T03:01:34;2.60;;;2.00;;
20022;SDS011;10172;42.054;24.546;2023-10-13T03:04:04;2.45;;;1.90;;
20022;SDS011;10172;42.054;24.546;2023-10-13T03:06:34;4.53;;;1.95;;
20022;SDS011;10172;42.054;24.546;2023-10-13T03:09:18;3.13;;;2.00;;
20022;SDS011;10172;42.054;24.546;2023-10-13T03:11:49;3.58;;;1.73;;
20022;SDS011;10172;42.054;24.546;2023-10-13T03:14:15;5.93;;;2.00;;
20022;SDS011;10172;42.054;24.546;2023-10-13T03:16:54;3.83;;;1.90;;
20022;SDS011;10172;42.054;24.546;2023-10-13T03:19:20;4.13;;;1.75;;
20022;SDS011;10172;42.054;24.546;2023-10-13T03:21:46;3.72;;;1.65;;
20022;SDS011;10172;42.054;24.546;2023-10-13T03:24:26;4.00;;;1.95;;
20022;SDS011;10172;42.054;24.546;2023-10-13T03:27:04;3.65;;;1.70;;
20022;SDS011;10172;42.054;24.546;2023-10-13T03:29:41;4.53;;;2.08;;
20022;SDS011;10172;42.054;24.546;2023-10-13T03:32:11;3.15;;;1.75;;
20022;SDS011;10172;42.054;24.546;2023-10-13T03:34:43;3.65;;;1.80;;
20022;SDS011;10172;42.054;24.546;2023-10-13T03:37:31;2.53;;;1.50;;
20022;SDS011;10172;42.054;24.546;2023-10-13T03:40:07;2.50;;;1.60;;
20022;SDS011;10172;42.054;24.546;2023-10-13T03:42:55;3.90;;;2.08;;
20022;SDS011;10172;42.054;24.546;2023-10-13T03:45:41;2.65;;;1.33;;
20022;SDS011;10172;42.054;24.546;2023-10-13T03:48:13;3.70;;;1.77;;
20022;SDS011;10172;42.054;24.546;2023-10-13T03:50:52;4.82;;;2.13;;
20022;SDS011;10172;42.054;24.546;2023-10-13T03:53:39;3.05;;;1.85;;
20022;SDS011;10172;42.054;24.546;2023-10-13T03:56:23;5.50;;;1.92;;
20022;SDS011;10172;42.054;24.546;2023-10-13T03:58:53;2.00;;;1.40;;
20022;SDS011;10172;42.054;24.546;2023-10-13T04:01:23;2.90;;;1.67;;
20022;SDS011;10172;42.054;24.546;2023-10-13T04:04:18;4.63;;;2.20;;
20022;SDS011;10172;42.054;24.546;2023-10-13T04:07:03;4.47;;;1.67;;
20022;SDS011;10172;42.054;24.546;2023-10-13T04:09:35;3.65;;;2.38;;
20022;SDS011;10172;42.054;24.546;2023-10-13T04:12:05;3.50;;;1.98;;
20022;SDS011;10172;42.054;24.546;2023-10-13T04:14:41;2.42;;;1.60;;
20022;SDS011;10172;42.054;24.546;2023-10-13T04:17:28;3.85;;;2.00;;
20022;SDS011;10172;42.054;24.546;2023-10-13T04:19:56;3.67;;;1.98;;
20022;SDS011;10172;42.054;24.546;2023-10-13T04:22:41;3.67;;;1.90;;
20022;SDS011;10172;42.054;24.546;2023-10-13T04:28:05;5.47;;;1.70;;
20022;SDS011;10172;42.054;24.546;2023-10-13T04:30:42;4.50;;;1.75;;
20022;SDS011;10172;42.054;24.546;2023-10-13T04:33:24;2.60;;;1.33;;
20022;SDS011;10172;42.054;24.546;2023-10-13T04:36:12;2.60;;;1.40;;
20022;SDS011;10172;42.054;24.546;2023-10-13T04:38:48;4.95;;;1.80;;
20022;SDS011;10172;42.054;24.546;2023-10-13T04:41:36;2.78;;;1.55;;
20022;SDS011;10172;42.054;24.546;2023-10-13T04:44:09;3.22;;;1.98;;
20022;SDS011;10172;42.054;24.546;2023-10-13T04:46:54;2.92;;;1.67;;
20022;SDS011;10172;42.054;24.546;2023-10-13T04:49:24;2.83;;;1.60;;
20022;SDS011;10172;42.054;24.546;2023-10-13T04:52:08;1.70;;;1.50;;
20022;SDS011;10172;42.054;24.546;2023-10-13T04:54:38;2.63;;;1.60;;
20022;SDS011;10172;42.054;24.546;2023-10-13T04:57:20;3.30;;;2.00;;
20022;SDS011;10172;42.054;24.546;2023-10-13T05:00:04;3.95;;;1.80;;
20022;SDS011;10172;42.054;24.546;2023-10-13T05:02:37;4.43;;;2.10;;
20022;SDS011;10172;42.054;24.546;2023-10-13T05:07:44;6.00;;;1.83;;
20022;SDS011;10172;42.054;24.546;2023-10-13T05:10:28;3.17;;;1.90;;
20022;SDS011;10172;42.054;24.546;2023-10-13T05:13:13;2.45;;;1.85;;
20022;SDS011;10172;42.054;24.546;2023-10-13T05:15:57;4.55;;;1.98;;
20022;SDS011;10172;42.054;24.546;2023-10-13T05:18:43;3.03;;;2.05;;
20022;SDS011;10172;42.054;24.546;2023-10-13T05:21:27;3.75;;;2.13;;
20022;SDS011;10172;42.054;24.546;2023-10-13T05:24:11;4.60;;;1.95;;
20022;SDS011;10172;42.054;24.546;2023-10-13T05:26:55;5.22;;;1.90;;
20022;SDS011;10172;42.054;24.546;2023-10-13T05:29:43;4.60;;;2.28;;
20022;SDS011;10172;42.054;24.546;2023-10-13T05:32:30;3.55;;;1.92;;
20022;SDS011;10172;42.054;24.546;2023-10-13T05:35:15;4.28;;;2.20;;
20022;SDS011;10172;42.054;24.546;2023-10-13T05:38:00;3.50;;;2.17;;
20022;SDS011;10172;42.054;24.546;2023-10-13T05:41:00;3.03;;;1.65;;
20022;SDS011;10172;42.054;24.546;2023-10-13T05:43:45;4.32;;;2.03;;
20022;SDS011;10172;42.054;24.546;2023-10-13T05:46:29;3.50;;;2.30;;
20022;SDS011;10172;42.054;24.546;2023-10-13T05:49:04;5.53;;;2.75;;
20022;SDS011;10172;42.054;24.546;2023-10-13T05:51:42;11.65;;;2.92;;
20022;SDS011;10172;42.054;24.546;2023-10-13T05:54:12;6.82;;;3.08;;
20022;SDS011;10172;42.054;24.546;2023-10-13T05:56:45;6.55;;;2.78;;
20022;SDS011;10172;42.054;24.546;2023-10-13T05:59:31;7.43;;;2.80;;
20022;SDS011;10172;42.054;24.546;2023-10-13T06:02:16;5.57;;;2.80;;
20022;SDS011;10172;42.054;24.546;2023-10-13T06:05:06;4.32;;;2.95;;
20022;SDS011;10172;42.054;24.546;2023-10-13T06:07:52;5.55;;;2.67;;
20022;SDS011;10172;42.054;24.546;2023-10-13T06:10:36;4.45;;;2.80;;
20022;SDS011;10172;42.054;24.546;2023-10-13T06:13:21;4.07;;;2.17;;
20022;SDS011;10172;42.054;24.546;2023-10-13T06:16:08;2.58;;;2.03;;
20022;SDS011;10172;42.054;24.546;2023-10-13T06:18:55;8.77;;;2.78;;
20022;SDS011;10172;42.054;24.546;2023-10-13T06:21:40;7.55;;;2.85;;
20022;SDS011;10172;42.054;24.546;2023-10-13T06:24:24;5.13;;;2.78;;
20022;SDS011;10172;42.054;24.546;2023-10-13T06:27:07;5.40;;;2.58;;
20022;SDS011;10172;42.054;24.546;2023-10-13T06:29:51;4.30;;;2.67;;
20022;SDS011;10172;42.054;24.546;2023-10-13T06:32:18;5.75;;;3.10;;
20022;SDS011;10172;42.054;24.546;2023-10-13T06:34:45;4.80;;;2.75;;
20022;SDS011;10172;42.054;24.546;2023-10-13T06:37:14;8.00;;;2.80;;
20022;SDS011;10172;42.054;24.546;2023-10-13T06:39:55;3.63;;;2.60;;
20022;SDS011;10172;42.054;24.546;2023-10-13T06:42:23;4.95;;;2.55;;
20022;SDS011;10172;42.054;24.546;2023-10-13T06:44:52;5.45;;;2.53;;
20022;SDS011;10172;42.054;24.546;2023-10-13T06:47:21;5.30;;;2.67;;
20022;SDS011;10172;42.054;24.546;2023-10-13T06:49:47;4.20;;;2.58;;
20022;SDS011;10172;42.054;24.546;2023-10-13T06:52:19;4.47;;;2.90;;
20022;SDS011;10172;42.054;24.546;2023-10-13T06:54:51;4.50;;;2.55;;
20022;SDS011;10172;42.054;24.546;2023-10-13T06:57:18;8.05;;;2.83;;
20022;SDS011;10172;42.054;24.546;2023-10-13T06:59:47;5.00;;;2.63;;
20022;SDS011;10172;42.054;24.546;2023-10-13T07:02:13;3.40;;;2.55;;
20022;SDS011;10172;42.054;24.546;2023-10-13T07:04:48;4.15;;;2.38;;
20022;SDS011;10172;42.054;24.546;2023-10-13T07:07:13;3.72;;;2.20;;
20022;SDS011;10172;42.054;24.546;2023-10-13T07:09:43;5.82;;;2.35;;
20022;SDS011;10172;42.054;24.546;2023-10-13T07:12:20;5.88;;;2.70;;
20022;SDS011;10172;42.054;24.546;2023-10-13T07:14:52;8.00;;;2.63;;
20022;SDS011;10172;42.054;24.546;2023-10-13T07:17:24;3.15;;;1.95;;
20022;SDS011;10172;42.054;24.546;2023-10-13T07:19:50;5.35;;;2.40;;
20022;SDS011;10172;42.054;24.546;2023-10-13T07:22:22;3.03;;;1.98;;
20022;SDS011;10172;42.054;24.546;2023-10-13T07:24:49;5.05;;;2.40;;
20022;SDS011;10172;42.054;24.546;2023-10-13T07:29:48;12.88;;;2.25;;
20022;SDS011;10172;42.054;24.546;2023-10-13T07:32:21;6.88;;;2.28;;
20022;SDS011;10172;42.054;24.546;2023-10-13T07:34:54;4.38;;;2.40;;
20022;SDS011;10172;42.054;24.546;2023-10-13T07:37:21;4.22;;;2.13;;
20022;SDS011;10172;42.054;24.546;2023-10-13T07:39:53;5.35;;;2.08;;
20022;SDS011;10172;42.054;24.546;2023-10-13T07:42:18;3.88;;;1.98;;
20022;SDS011;10172;42.054;24.546;2023-10-13T07:44:47;2.63;;;1.73;;
20022;SDS011;10172;42.054;24.546;2023-10-13T07:47:12;4.43;;;2.00;;
20022;SDS011;10172;42.054;24.546;2023-10-13T07:49:39;2.90;;;1.98;;
20022;SDS011;10172;42.054;24.546;2023-10-13T07:52:06;2.95;;;1.83;;
20022;SDS011;10172;42.054;24.546;2023-10-13T07:54:45;3.45;;;2.25;;
20022;SDS011;10172;42.054;24.546;2023-10-13T07:57:14;4.40;;;2.22;;
20022;SDS011;10172;42.054;24.546;2023-10-13T07:59:41;7.07;;;2.33;;
20022;SDS011;10172;42.054;24.546;2023-10-13T08:02:16;6.45;;;2.42;;
20022;SDS011;10172;42.054;24.546;2023-10-13T08:05:02;3.97;;;2.70;;
20022;SDS011;10172;42.054;24.546;2023-10-13T08:07:29;5.55;;;2.05;;
20022;SDS011;10172;42.054;24.546;2023-10-13T08:09:56;3.78;;;1.92;;
20022;SDS011;10172;42.054;24.546;2023-10-13T08:12:24;2.75;;;1.52;;
20022;SDS011;10172;42.054;24.546;2023-10-13T08:14:50;2.63;;;1.85;;
20022;SDS011;10172;42.054;24.546;2023-10-13T08:17:34;4.70;;;2.22;;
20022;SDS011;10172;42.054;24.546;2023-10-13T08:19:59;3.25;;;1.73;;
20022;SDS011;10172;42.054;24.546;2023-10-13T08:22:36;2.95;;;1.65;;
20022;SDS011;10172;42.054;24.546;2023-10-13T08:25:03;2.65;;;1.70;;
20022;SDS011;10172;42.054;24.546;2023-10-13T08:27:48;4.20;;;2.10;;
20022;SDS011;10172;42.054;24.546;2023-10-13T08:30:14;4.00;;;1.55;;
20022;SDS011;10172;42.054;24.546;2023-10-13T08:32:54;4.38;;;2.08;;
20022;SDS011;10172;42.054;24.546;2023-10-13T08:35:21;4.05;;;1.67;;
20022;SDS011;10172;42.054;24.546;2023-10-13T08:37:48;2.67;;;1.70;;
20022;SDS011;10172;42.054;24.546;2023-10-13T08:40:16;2.80;;;1.60;;
20022;SDS011;10172;42.054;24.546;2023-10-13T08:43:02;2.70;;;1.73;;
20022;SDS011;10172;42.054;24.546;2023-10-13T08:45:30;3.22;;;1.90;;
20022;SDS011;10172;42.054;24.546;2023-10-13T08:48:01;3.63;;;1.60;;
20022;SDS011;10172;42.054;24.546;2023-10-13T08:50:43;2.55;;;1.70;;
20022;SDS011;10172;42.054;24.546;2023-10-13T08:58:29;3.55;;;1.70;;
20022;SDS011;10172;42.054;24.546;2023-10-13T09:01:15;2.35;;;1.60;;
20022;SDS011;10172;42.054;24.546;2023-10-13T09:04:06;2.85;;;1.63;;
20022;SDS011;10172;42.054;24.546;2023-10-13T09:09:26;2.47;;;1.60;;
20022;SDS011;10172;42.054;24.546;2023-10-13T09:11:55;2.83;;;1.55;;
20022;SDS011;10172;42.054;24.546;2023-10-13T09:14:36;3.50;;;1.63;;
20022;SDS011;10172;42.054;24.546;2023-10-13T09:17:07;2.53;;;1.50;;
20022;SDS011;10172;42.054;24.546;2023-10-13T09:19:52;2.78;;;1.70;;
20022;SDS011;10172;42.054;24.546;2023-10-13T09:22:22;4.28;;;2.08;;
20022;SDS011;10172;42.054;24.546;2023-10-13T09:25:03;4.97;;;2.00;;
20022;SDS011;10172;42.054;24.546;2023-10-13T09:27:38;2.15;;;1.70;;
20022;SDS011;10172;42.054;24.546;2023-10-13T09:30:04;4.13;;;1.83;;
20022;SDS011;10172;42.054;24.546;2023-10-13T09:32:47;7.60;;;2.05;;
20022;SDS011;10172;42.054;24.546;2023-10-13T09:35:26;2.15;;;1.42;;
20022;SDS011;10172;42.054;24.546;2023-10-13T09:37:52;3.78;;;1.77;;
20022;SDS011;10172;42.054;24.546;2023-10-13T09:40:21;3.45;;;1.92;;
20022;SDS011;10172;42.054;24.546;2023-10-13T09:42:54;4.00;;;1.73;;
20022;SDS011;10172;42.054;24.546;2023-10-13T09:45:28;3.63;;;1.85;;
20022;SDS011;10172;42.054;24.546;2023-10-13T09:48:01;4.72;;;2.30;;
20022;SDS011;10172;42.054;24.546;2023-10-13T09:50:31;8.48;;;2.13;;
20022;SDS011;10172;42.054;24.546;2023-10-13T09:53:03;3.88;;;2.40;;
20022;SDS011;10172;42.054;24.546;2023-10-13T09:55:35;3.85;;;1.80;;
20022;SDS011;10172;42.054;24.546;2023-10-13T09:58:06;3.80;;;2.15;;
20022;SDS011;10172;42.054;24.546;2023-10-13T10:00:42;2.20;;;1.67;;
20022;SDS011;10172;42.054;24.546;2023-10-13T10:03:13;4.53;;;1.92;;
20022;SDS011;10172;42.054;24.546;2023-10-13T10:06:01;2.90;;;1.80;;
20022;SDS011;10172;42.054;24.546;2023-10-13T10:08:50;5.97;;;1.80;;
20022;SDS011;10172;42.054;24.546;2023-10-13T10:11:23;2.67;;;1.77;;
20022;SDS011;10172;42.054;24.546;2023-10-13T10:19:44;4.45;;;2.20;;
20022;SDS011;10172;42.054;24.546;2023-10-13T10:22:32;3.03;;;1.67;;
20022;SDS011;10172;42.054;24.546;2023-10-13T10:25:05;4.80;;;1.90;;
20022;SDS011;10172;42.054;24.546;2023-10-13T10:27:32;4.22;;;2.03;;
20022;SDS011;10172;42.054;24.546;2023-10-13T10:29:59;4.10;;;1.90;;
20022;SDS011;10172;42.054;24.546;2023-10-13T10:32:32;9.80;;;2.63;;
20022;SDS011;10172;42.054;24.546;2023-10-13T10:35:08;4.78;;;2.03;;
20022;SDS011;10172;42.054;24.546;2023-10-13T10:37:39;3.28;;;1.55;;
20022;SDS011;10172;42.054;24.546;2023-10-13T10:40:12;2.10;;;1.40;;
20022;SDS011;10172;42.054;24.546;2023-10-13T10:42:57;3.97;;;1.55;;
20022;SDS011;10172;42.054;24.546;2023-10-13T10:45:26;4.18;;;1.77;;
20022;SDS011;10172;42.054;24.546;2023-10-13T10:47:57;2.60;;;1.63;;
20022;SDS011;10172;42.054;24.546;2023-10-13T10:50:26;3.50;;;1.88;;
20022;SDS011;10172;42.054;24.546;2023-10-13T10:53:04;2.75;;;1.45;;
20022;SDS011;10172;42.054;24.546;2023-10-13T10:55:34;3.38;;;2.00;;
20022;SDS011;10172;42.054;24.546;2023-10-13T10:58:01;4.15;;;1.48;;
20022;SDS011;10172;42.054;24.546;2023-10-13T11:00:30;1.90;;;1.40;;
20022;SDS011;10172;42.054;24.546;2023-10-13T11:03:11;10.02;;;1.85;;
20022;SDS011;10172;42.054;24.546;2023-10-13T11:05:46;3.75;;;1.20;;
20022;SDS011;10172;42.054;24.546;2023-10-13T11:08:22;2.60;;;1.50;;
20022;SDS011;10172;42.054;24.546;2023-10-13T11:10:56;3.55;;;1.25;;
20022;SDS011;10172;42.054;24.546;2023-10-13T11:13:22;4.40;;;1.63;;
20022;SDS011;10172;42.054;24.546;2023-10-13T11:15:48;3.58;;;1.65;;
20022;SDS011;10172;42.054;24.546;2023-10-13T11:18:14;2.63;;;1.80;;
20022;SDS011;10172;42.054;24.546;2023-10-13T11:20:48;3.45;;;1.50;;
20022;SDS011;10172;42.054;24.546;2023-10-13T11:23:19;3.20;;;1.88;;
20022;SDS011;10172;42.054;24.546;2023-10-13T11:25:55;3.55;;;1.40;;
20022;SDS011;10172;42.054;24.546;2023-10-13T11:28:21;3.33;;;1.70;;
20022;SDS011;10172;42.054;24.546;2023-10-13T11:30:53;2.75;;;1.55;;
20022;SDS011;10172;42.054;24.546;2023-10-13T11:33:24;4.78;;;1.73;;
20022;SDS011;10172;42.054;24.546;2023-10-13T11:35:53;4.25;;;1.42;;
20022;SDS011;10172;42.054;24.546;2023-10-13T11:38:23;3.40;;;2.03;;
20022;SDS011;10172;42.054;24.546;2023-10-13T11:40:57;6.60;;;1.40;;
20022;SDS011;10172;42.054;24.546;2023-10-13T11:43:33;3.20;;;1.75;;
20022;SDS011;10172;42.054;24.546;2023-10-13T11:46:11;3.05;;;1.83;;
20022;SDS011;10172;42.054;24.546;2023-10-13T11:48:40;3.53;;;1.92;;
20022;SDS011;10172;42.054;24.546;2023-10-13T11:51:10;5.18;;;1.85;;
20022;SDS011;10172;42.054;24.546;2023-10-13T11:53:45;5.75;;;1.50;;
20022;SDS011;10172;42.054;24.546;2023-10-13T11:56:16;2.30;;;1.40;;
20022;SDS011;10172;42.054;24.546;2023-10-13T11:58:45;2.55;;;1.42;;
20022;SDS011;10172;42.054;24.546;2023-10-13T12:01:11;4.38;;;1.70;;
20022;SDS011;10172;42.054;24.546;2023-10-13T12:03:43;3.72;;;1.77;;
20022;SDS011;10172;42.054;24.546;2023-10-13T12:06:29;1.75;;;1.20;;
20022;SDS011;10172;42.054;24.546;2023-10-13T12:11:48;3.95;;;1.20;;
20022;SDS011;10172;42.054;24.546;2023-10-13T12:14:19;3.97;;;1.45;;
20022;SDS011;10172;42.054;24.546;2023-10-13T12:16:49;4.97;;;1.85;;
20022;SDS011;10172;42.054;24.546;2023-10-13T12:19:18;2.67;;;1.38;;
20022;SDS011;10172;42.054;24.546;2023-10-13T12:21:48;3.20;;;1.65;;
20022;SDS011;10172;42.054;24.546;2023-10-13T12:24:14;2.75;;;1.80;;
20022;SDS011;10172;42.054;24.546;2023-10-13T12:26:58;3.13;;;1.70;;
20022;SDS011;10172;42.054;24.546;2023-10-13T12:29:23;1.92;;;1.27;;
20022;SDS011;10172;42.054;24.546;2023-10-13T12:31:53;3.88;;;1.70;;
20022;SDS011;10172;42.054;24.546;2023-10-13T12:34:37;4.60;;;1.73;;
20022;SDS011;10172;42.054;24.546;2023-10-13T12:37:22;2.33;;;1.58;;
20022;SDS011;10172;42.054;24.546;2023-10-13T12:40:06;2.60;;;1.65;;
20022;SDS011;10172;42.054;24.546;2023-10-13T12:42:55;2.08;;;1.42;;
20022;SDS011;10172;42.054;24.546;2023-10-13T12:45:43;2.28;;;1.38;;
20022;SDS011;10172;42.054;24.546;2023-10-13T12:48:27;2.60;;;1.48;;
20022;SDS011;10172;42.054;24.546;2023-10-13T12:51:12;1.98;;;1.40;;
20022;SDS011;10172;42.054;24.546;2023-10-13T12:53:56;4.88;;;1.98;;
20022;SDS011;10172;42.054;24.546;2023-10-13T12:56:39;5.57;;;2.15;;
20022;SDS011;10172;42.054;24.546;2023-10-13T12:59:10;3.08;;;1.42;;
20022;SDS011;10172;42.054;24.546;2023-10-13T13:01:39;3.08;;;1.48;;
20022;SDS011;10172;42.054;24.546;2023-10-13T13:04:08;4.90;;;1.77;;
20022;SDS011;10172;42.054;24.546;2023-10-13T13:06:45;1.98;;;1.40;;
20022;SDS011;10172;42.054;24.546;2023-10-13T13:09:11;3.75;;;1.80;;
20022;SDS011;10172;42.054;24.546;2023-10-13T13:11:36;3.97;;;1.58;;
20022;SDS011;10172;42.054;24.546;2023-10-13T13:14:05;3.40;;;1.60;;
20022;SDS011;10172;42.054;24.546;2023-10-13T13:16:34;1.83;;;1.42;;
20022;SDS011;10172;42.054;24.546;2023-10-13T13:19:00;6.22;;;1.90;;
20022;SDS011;10172;42.054;24.546;2023-10-13T13:21:28;1.95;;;1.17;;
20022;SDS011;10172;42.054;24.546;2023-10-13T13:23:54;2.50;;;1.45;;
20022;SDS011;10172;42.054;24.546;2023-10-13T13:26:20;2.42;;;1.58;;
20022;SDS011;10172;42.054;24.546;2023-10-13T13:28:46;2.80;;;1.45;;
20022;SDS011;10172;42.054;24.546;2023-10-13T13:31:15;2.33;;;1.25;;
20022;SDS011;10172;42.054;24.546;2023-10-13T13:33:41;2.03;;;1.30;;
20022;SDS011;10172;42.054;24.546;2023-10-13T13:36:09;3.95;;;1.30;;
20022;SDS011;10172;42.054;24.546;2023-10-13T13:38:42;3.47;;;1.45;;
20022;SDS011;10172;42.054;24.546;2023-10-13T13:41:14;4.07;;;1.40;;
20022;SDS011;10172;42.054;24.546;2023-10-13T13:43:47;1.95;;;1.20;;
20022;SDS011;10172;42.054;24.546;2023-10-13T13:46:25;2.75;;;1.27;;
20022;SDS011;10172;42.054;24.546;2023-10-13T13:48:57;3.03;;;1.20;;
20022;SDS011;10172;42.054;24.546;2023-10-13T13:51:24;2.03;;;0.93;;
20022;SDS011;10172;42.054;24.546;2023-10-13T13:53:54;2.85;;;1.42;;
20022;SDS011;10172;42.054;24.546;2023-10-13T13:56:21;2.17;;;1.27;;
20022;SDS011;10172;42.054;24.546;2023-10-13T13:58:50;3.15;;;1.38;;
20022;SDS011;10172;42.054;24.546;2023-10-13T14:01:16;2.92;;;1.48;;
20022;SDS011;10172;42.054;24.546;2023-10-13T14:03:47;3.38;;;1.15;;
20022;SDS011;10172;42.054;24.546;2023-10-13T14:06:22;3.55;;;1.10;;
20022;SDS011;10172;42.054;24.546;2023-10-13T14:08:50;3.25;;;1.38;;
20022;SDS011;10172;42.054;24.546;2023-10-13T14:11:20;1.77;;;0.98;;
20022;SDS011;10172;42.054;24.546;2023-10-13T14:14:13;2.47;;;0.93;;
20022;SDS011;10172;42.054;24.546;2023-10-13T14:16:49;2.33;;;0.90;;
20022;SDS011;10172;42.054;24.546;2023-10-13T14:19:14;4.50;;;1.23;;
20022;SDS011;10172;42.054;24.546;2023-10-13T14:21:51;2.70;;;1.20;;
20022;SDS011;10172;42.054;24.546;2023-10-13T14:24:18;3.55;;;1.17;;
20022;SDS011;10172;42.054;24.546;2023-10-13T14:26:52;2.33;;;1.27;;
20022;SDS011;10172;42.054;24.546;2023-10-13T14:29:18;6.20;;;1.52;;
20022;SDS011;10172;42.054;24.546;2023-10-13T14:31:44;2.10;;;1.30;;
20022;SDS011;10172;42.054;24.546;2023-10-13T14:34:09;4.35;;;1.55;;
20022;SDS011;10172;42.054;24.546;2023-10-13T14:36:36;2.67;;;1.42;;
20022;SDS011;10172;42.054;24.546;2023-10-13T14:39:01;1.75;;;1.23;;
20022;SDS011;10172;42.054;24.546;2023-10-13T14:41:32;2.63;;;1.63;;
20022;SDS011;10172;42.054;24.546;2023-10-13T14:43:57;2.88;;;1.42;;
20022;SDS011;10172;42.054;24.546;2023-10-13T14:46:30;1.30;;;1.20;;
20022;SDS011;10172;42.054;24.546;2023-10-13T14:48:55;2.80;;;1.30;;
20022;SDS011;10172;42.054;24.546;2023-10-13T14:51:21;3.45;;;1.30;;
20022;SDS011;10172;42.054;24.546;2023-10-13T14:53:46;1.70;;;1.23;;
20022;SDS011;10172;42.054;24.546;2023-10-13T14:56:13;2.63;;;1.45;;
20022;SDS011;10172;42.054;24.546;2023-10-13T14:58:40;1.92;;;1.23;;
20022;SDS011;10172;42.054;24.546;2023-10-13T15:03:44;3.75;;;1.50;;
20022;SDS011;10172;42.054;24.546;2023-10-13T15:06:16;3.83;;;1.50;;
20022;SDS011;10172;42.054;24.546;2023-10-13T15:08:54;4.18;;;1.67;;
20022;SDS011;10172;42.054;24.546;2023-10-13T15:11:21;2.13;;;1.60;;
20022;SDS011;10172;42.054;24.546;2023-10-13T15:13:51;4.03;;;1.80;;
20022;SDS011;10172;42.054;24.546;2023-10-13T15:16:18;2.75;;;1.30;;
20022;SDS011;10172;42.054;24.546;2023-10-13T15:18:49;2.35;;;1.08;;
20022;SDS011;10172;42.054;24.546;2023-10-13T15:21:19;3.55;;;1.10;;
20022;SDS011;10172;42.054;24.546;2023-10-13T15:23:49;4.97;;;1.17;;
20022;SDS011;10172;42.054;24.546;2023-10-13T15:26:16;1.63;;;1.00;;
20022;SDS011;10172;42.054;24.546;2023-10-13T15:28:43;1.45;;;1.10;;
20022;SDS011;10172;42.054;24.546;2023-10-13T15:31:17;2.60;;;0.95;;
20022;SDS011;10172;42.054;24.546;2023-10-13T15:33:58;3.42;;;1.17;;
20022;SDS011;10172;42.054;24.546;2023-10-13T15:36:24;2.08;;;1.02;;
20022;SDS011;10172;42.054;24.546;2023-10-13T15:38:51;1.08;;;0.77;;